createdAt,value
2023-02-25T00:01:15.024Z,4.58
2023-02-25T00:03:47.110Z,4.54
2023-02-25T00:06:18.847Z,4.50
2023-02-25T00:08:51.785Z,4.58
2023-02-25T00:11:26.588Z,4.64
2023-02-25T00:13:58.525Z,4.68
2023-02-25T00:16:30.574Z,4.68
2023-02-25T00:19:03.760Z,4.57
2023-02-25T00:21:35.782Z,4.64
2023-02-25T00:24:16.311Z,4.70
2023-02-25T00:26:48.883Z,4.60
2023-02-25T00:29:20.585Z,4.56
2023-02-25T00:31:52.726Z,4.62
2023-02-25T00:34:24.954Z,4.62
2023-02-25T00:36:56.996Z,4.63
2023-02-25T00:39:41.940Z,4.60
2023-02-25T00:42:16.680Z,4.55
2023-02-25T00:44:50.359Z,4.61
2023-02-25T00:47:22.595Z,4.67
2023-02-25T00:49:54.542Z,4.67
2023-02-25T00:52:26.286Z,4.68
2023-02-25T00:54:57.983Z,4.67
2023-02-25T00:57:29.681Z,4.62
2023-02-25T01:00:01.493Z,4.69
2023-02-25T01:02:33.223Z,4.73
2023-02-25T01:05:05.834Z,4.72
2023-02-25T01:07:38.236Z,4.68
2023-02-25T01:10:12.465Z,4.69
2023-02-25T01:12:44.275Z,4.67
2023-02-25T01:15:16.369Z,4.69
2023-02-25T01:17:48.354Z,4.70
2023-02-25T01:20:22.914Z,4.72
2023-02-25T01:22:54.626Z,4.75
2023-02-25T01:25:27.729Z,4.73
2023-02-25T01:28:00.433Z,4.70
2023-02-25T01:30:30.690Z,4.72
2023-02-25T01:33:02.451Z,4.74
2023-02-25T01:35:36.602Z,4.76
2023-02-25T01:38:08.359Z,4.71
2023-02-25T01:40:40.351Z,4.74
2023-02-25T01:43:16.924Z,4.62
2023-02-25T01:45:48.888Z,4.62
2023-02-25T01:48:23.349Z,4.70
2023-02-25T01:50:59.932Z,4.76
2023-02-25T01:53:35.048Z,4.79
2023-02-25T01:56:08.593Z,4.66
2023-02-25T01:58:42.195Z,4.67
2023-02-25T02:01:16.584Z,4.75
2023-02-25T02:03:50.827Z,4.81
2023-02-25T02:06:28.188Z,4.84
2023-02-25T02:09:01.727Z,4.88
2023-02-25T02:11:35.240Z,4.86
2023-02-25T02:14:07.490Z,4.90
2023-02-25T02:17:10.143Z,4.92
2023-02-25T02:20:11.515Z,4.90
2023-02-25T02:22:53.449Z,4.85
2023-02-25T02:25:53.456Z,4.77
2023-02-25T02:29:01.277Z,4.88
2023-02-25T02:32:03.351Z,4.93
2023-02-25T02:34:42.664Z,4.84
2023-02-25T02:37:26.519Z,4.87
2023-02-25T02:40:15.672Z,4.87
2023-02-25T02:42:58.735Z,4.91
2023-02-25T02:45:38.090Z,4.94
2023-02-25T02:48:14.803Z,4.92
2023-02-25T02:50:52.379Z,4.79
2023-02-25T02:53:29.859Z,4.81
2023-02-25T02:56:04.813Z,4.91
2023-02-25T02:58:42.332Z,4.93
2023-02-25T03:01:16.946Z,4.93
2023-02-25T03:03:59.644Z,4.93
2023-02-25T03:06:34.980Z,4.88
2023-02-25T03:09:11.545Z,4.85
2023-02-25T03:11:44.061Z,4.91
2023-02-25T03:14:16.223Z,4.92
2023-02-25T03:16:52.170Z,4.90
2023-02-25T03:19:28.415Z,4.91
2023-02-25T03:22:07.095Z,4.85
2023-02-25T03:24:45.474Z,4.75
2023-02-25T03:27:29.692Z,4.78
2023-02-25T03:30:14.815Z,4.82
2023-02-25T03:32:52.373Z,4.84
2023-02-25T03:35:27.167Z,4.87
2023-02-25T03:38:04.236Z,4.85
2023-02-25T03:40:41.145Z,4.87
2023-02-25T03:43:17.379Z,4.89
2023-02-25T03:45:50.133Z,4.82
2023-02-25T03:48:22.458Z,4.72
2023-02-25T03:51:00.662Z,4.78
2023-02-25T03:53:35.357Z,4.81
2023-02-25T03:56:16.734Z,4.76
2023-02-25T03:58:48.570Z,4.81
2023-02-25T04:01:26.013Z,4.78
2023-02-25T04:03:57.821Z,4.74
2023-02-25T04:06:29.525Z,4.79
2023-02-25T04:09:01.523Z,4.81
2023-02-25T04:11:33.421Z,4.82
2023-02-25T04:14:05.418Z,4.79
2023-02-25T04:16:37.235Z,4.73
2023-02-25T04:19:09.081Z,4.66
2023-02-25T04:21:41.279Z,4.60
2023-02-25T04:24:13.261Z,4.53
2023-02-25T04:26:45.190Z,4.52
2023-02-25T04:29:17.266Z,4.38
2023-02-25T04:31:49.121Z,4.27
2023-02-25T04:34:21.225Z,4.12
2023-02-25T04:36:53.792Z,4.03
2023-02-25T04:39:25.527Z,3.96
2023-02-25T04:41:57.661Z,3.86
2023-02-25T04:44:29.452Z,3.79
2023-02-25T04:47:01.112Z,3.76
2023-02-25T04:49:33.092Z,3.72
2023-02-25T04:52:05.186Z,3.73
2023-02-25T04:54:37.053Z,3.71
2023-02-25T04:57:09.738Z,3.70
2023-02-25T04:59:41.881Z,3.76
2023-02-25T05:02:13.760Z,3.72
2023-02-25T05:04:45.744Z,3.69
2023-02-25T05:07:18.048Z,3.62
2023-02-25T05:09:49.830Z,3.57
2023-02-25T05:12:21.585Z,3.51
2023-02-25T05:14:53.278Z,3.44
2023-02-25T05:17:25.024Z,3.45
2023-02-25T05:19:58.495Z,3.44
2023-02-25T05:22:30.617Z,3.43
2023-02-25T05:25:03.005Z,3.52
2023-02-25T05:27:35.451Z,3.46
2023-02-25T05:30:09.170Z,3.47
2023-02-25T05:32:41.179Z,3.45
2023-02-25T05:35:13.089Z,3.39
2023-02-25T05:37:44.876Z,3.31
2023-02-25T05:40:17.454Z,3.26
2023-02-25T05:42:49.567Z,3.25
2023-02-25T05:45:21.613Z,3.27
2023-02-25T05:47:53.791Z,3.24
2023-02-25T05:50:25.506Z,3.27
2023-02-25T05:52:57.632Z,3.23
2023-02-25T05:55:29.972Z,3.19
2023-02-25T05:58:02.003Z,3.18
2023-02-25T06:00:33.977Z,3.23
2023-02-25T06:03:06.176Z,3.21
2023-02-25T06:05:42.788Z,3.19
2023-02-25T06:08:14.861Z,3.19
2023-02-25T06:10:46.589Z,3.25
2023-02-25T06:13:18.766Z,3.21
2023-02-25T06:15:50.429Z,3.24
2023-02-25T06:18:22.391Z,3.25
2023-02-25T06:20:55.014Z,3.28
2023-02-25T06:23:25.279Z,3.30
2023-02-25T06:25:58.884Z,3.28
2023-02-25T06:28:31.561Z,3.27
2023-02-25T06:31:03.827Z,3.28
2023-02-25T06:33:35.495Z,3.33
2023-02-25T06:36:08.887Z,3.30
2023-02-25T06:38:41.233Z,3.38
2023-02-25T06:41:18.237Z,3.39
2023-02-25T06:43:52.010Z,3.32
2023-02-25T06:46:26.133Z,3.29
2023-02-25T06:48:58.304Z,3.22
2023-02-25T06:51:30.362Z,3.22
2023-02-25T06:54:03.217Z,3.23
2023-02-25T06:56:35.347Z,3.24
2023-02-25T06:59:07.355Z,3.23
2023-02-25T07:01:39.161Z,3.19
2023-02-25T07:04:15.861Z,3.16
2023-02-25T07:06:48.050Z,3.23
2023-02-25T07:09:19.801Z,3.20
2023-02-25T07:11:51.664Z,3.21
2023-02-25T07:14:23.457Z,3.26
2023-02-25T07:16:55.782Z,3.23
2023-02-25T07:19:27.723Z,3.24
2023-02-25T07:21:59.874Z,3.25
2023-02-25T07:24:32.019Z,3.24
2023-02-25T07:27:04.005Z,3.29
2023-02-25T07:29:36.442Z,3.16
2023-02-25T07:32:09.526Z,3.13
2023-02-25T07:34:41.398Z,3.17
2023-02-25T07:37:13.886Z,3.13
2023-02-25T07:39:47.624Z,3.16
2023-02-25T07:42:19.597Z,3.24
2023-02-25T07:44:53.046Z,3.26
2023-02-25T07:47:24.920Z,3.29
2023-02-25T07:49:56.703Z,3.21
2023-02-25T07:52:29.095Z,3.21
2023-02-25T07:55:00.848Z,3.27
2023-02-25T07:57:32.903Z,3.20
2023-02-25T08:00:10.323Z,3.15
2023-02-25T08:02:46.090Z,3.23
2023-02-25T08:05:21.890Z,3.24
2023-02-25T08:07:53.694Z,3.33
2023-02-25T08:10:25.860Z,3.37
2023-02-25T08:12:57.679Z,3.45
2023-02-25T08:15:29.473Z,3.46
2023-02-25T08:18:01.564Z,3.58
2023-02-25T08:20:33.366Z,3.61
2023-02-25T08:23:06.333Z,3.64
2023-02-25T08:25:38.154Z,3.60
2023-02-25T08:28:10.415Z,3.63
2023-02-25T08:30:42.351Z,3.70
2023-02-25T08:33:14.144Z,3.63
2023-02-25T08:35:46.179Z,3.64
2023-02-25T08:38:17.967Z,3.63
2023-02-25T08:40:50.561Z,3.64
2023-02-25T08:43:22.418Z,3.58
2023-02-25T08:45:55.420Z,3.59
2023-02-25T08:48:27.633Z,3.58
2023-02-25T08:51:02.523Z,3.50
2023-02-25T08:53:34.451Z,3.52
2023-02-25T08:56:07.020Z,3.56
2023-02-25T08:58:39.795Z,3.57
2023-02-25T09:01:14.745Z,3.48
2023-02-25T09:03:52.139Z,3.53
2023-02-25T09:06:26.560Z,3.59
2023-02-25T09:08:58.978Z,3.65
2023-02-25T09:11:30.969Z,3.73
2023-02-25T09:14:02.845Z,3.83
2023-02-25T09:16:34.668Z,4.02
2023-02-25T09:19:07.118Z,4.11
2023-02-25T09:21:40.352Z,4.19
2023-02-25T09:24:12.932Z,4.15
2023-02-25T09:26:44.808Z,4.08
2023-02-25T09:29:17.084Z,4.19
2023-02-25T09:31:49.445Z,4.08
2023-02-25T09:34:21.357Z,4.08
2023-02-25T09:36:53.319Z,4.25
2023-02-25T09:39:25.231Z,4.39
2023-02-25T09:42:01.076Z,4.49
2023-02-25T09:44:37.373Z,4.42
2023-02-25T09:47:19.323Z,4.54
2023-02-25T09:49:57.029Z,4.46
2023-02-25T09:52:33.008Z,4.35
2023-02-25T09:55:09.530Z,4.35
2023-02-25T09:57:46.827Z,4.39
2023-02-25T10:00:23.636Z,4.42
2023-02-25T10:03:00.732Z,4.39
2023-02-25T10:05:44.219Z,4.44
2023-02-25T10:08:22.865Z,4.48
2023-02-25T10:11:03.830Z,4.41
2023-02-25T10:13:46.150Z,4.42
2023-02-25T10:16:30.705Z,4.49
2023-02-25T10:19:12.349Z,4.48
2023-02-25T10:21:58.412Z,4.43
2023-02-25T10:24:39.906Z,4.51
2023-02-25T10:27:21.632Z,4.57
2023-02-25T10:29:56.580Z,4.50
2023-02-25T10:32:32.521Z,4.46
2023-02-25T10:35:18.146Z,4.39
2023-02-25T10:37:50.239Z,4.38
2023-02-25T10:40:24.444Z,4.36
2023-02-25T10:43:01.068Z,4.29
2023-02-25T10:45:33.664Z,4.23
2023-02-25T10:48:13.487Z,4.19
2023-02-25T10:51:02.645Z,4.24
2023-02-25T10:53:35.091Z,5.15
2023-02-25T10:56:08.690Z,5.86
2023-02-25T10:58:44.625Z,6.09
2023-02-25T11:01:20.514Z,6.86
2023-02-25T11:04:03.764Z,6.83
2023-02-25T11:06:38.171Z,6.79
2023-02-25T11:09:31.733Z,6.81
2023-02-25T11:12:18.903Z,5.71
2023-02-25T11:14:50.872Z,5.59
2023-02-25T11:17:23.262Z,5.72
2023-02-25T11:20:01.459Z,5.54
2023-02-25T11:22:39.980Z,5.37
2023-02-25T11:25:19.972Z,5.35
2023-02-25T11:27:58.695Z,5.21
2023-02-25T11:30:35.380Z,5.27
2023-02-25T11:33:15.417Z,5.27
2023-02-25T11:35:47.437Z,5.09
2023-02-25T11:38:28.367Z,5.09
2023-02-25T11:41:00.610Z,5.09
2023-02-25T11:43:40.681Z,5.10
2023-02-25T11:46:19.588Z,5.08
2023-02-25T11:48:53.844Z,5.01
2023-02-25T11:51:31.486Z,4.95
2023-02-25T11:54:25.688Z,4.89
2023-02-25T11:57:06.373Z,4.94
2023-02-25T11:59:40.340Z,4.97
2023-02-25T12:02:28.683Z,4.87
2023-02-25T12:05:35.188Z,4.93
2023-02-25T12:08:33.177Z,4.94
2023-02-25T12:11:36.614Z,4.93
2023-02-25T12:14:34.840Z,4.72
2023-02-25T12:17:37.628Z,4.68
2023-02-25T12:20:42.656Z,4.45
2023-02-25T12:24:00.759Z,4.44
2023-02-25T12:26:45.079Z,4.38
2023-02-25T12:29:39.517Z,4.32
2023-02-25T12:32:26.469Z,4.32
2023-02-25T12:35:28.343Z,4.40
2023-02-25T12:38:23.198Z,4.30
2023-02-25T12:41:12.053Z,4.28
2023-02-25T12:43:53.256Z,4.23
2023-02-25T12:46:33.685Z,4.18
2023-02-25T12:49:34.284Z,4.12
2023-02-25T12:52:17.575Z,4.03
2023-02-25T12:55:10.648Z,3.96
2023-02-25T12:57:52.899Z,4.01
2023-02-25T13:00:58.608Z,4.00
2023-02-25T13:03:43.131Z,3.89
2023-02-25T13:06:41.178Z,3.94
2023-02-25T13:09:54.440Z,4.00
2023-02-25T13:12:45.095Z,3.97
2023-02-25T13:15:21.851Z,3.93
2023-02-25T13:18:10.950Z,3.88
2023-02-25T13:20:54.515Z,3.84
2023-02-25T13:23:44.839Z,3.85
2023-02-25T13:26:29.017Z,3.91
2023-02-25T13:29:19.950Z,3.86
2023-02-25T13:32:13.806Z,3.88
2023-02-25T13:34:52.057Z,3.84
2023-02-25T13:37:42.663Z,3.82
2023-02-25T13:40:32.739Z,3.88
2023-02-25T13:43:22.814Z,3.90
2023-02-25T13:46:13.981Z,3.93
2023-02-25T13:49:18.480Z,3.95
2023-02-25T13:52:17.939Z,3.99
2023-02-25T13:55:29.513Z,4.02
2023-02-25T13:58:20.708Z,4.06
2023-02-25T14:01:28.269Z,4.07
2023-02-25T14:04:35.080Z,4.08
2023-02-25T14:07:32.233Z,4.10
2023-02-25T14:10:22.798Z,4.16
2023-02-25T14:13:12.994Z,4.22
2023-02-25T14:15:56.204Z,4.18
2023-02-25T14:18:46.768Z,4.21
2023-02-25T14:21:44.739Z,4.23
2023-02-25T14:24:25.293Z,4.18
2023-02-25T14:27:10.307Z,4.21
2023-02-25T14:29:59.785Z,4.24
2023-02-25T14:32:44.789Z,4.23
2023-02-25T14:35:36.602Z,4.27
2023-02-25T14:38:13.797Z,4.31
2023-02-25T14:40:52.565Z,4.36
2023-02-25T14:43:32.233Z,4.41
2023-02-25T14:46:15.433Z,4.45
2023-02-25T14:48:57.020Z,4.42
2023-02-25T14:52:02.340Z,4.40
2023-02-25T14:54:56.089Z,4.27
2023-02-25T14:58:00.366Z,4.23
2023-02-25T15:00:59.673Z,4.55
2023-02-25T15:03:54.442Z,4.64
2023-02-25T15:06:57.507Z,4.53
2023-02-25T15:10:14.929Z,4.21
2023-02-25T15:13:12.300Z,4.02
2023-02-25T15:16:18.151Z,3.95
2023-02-25T15:19:17.061Z,3.76
2023-02-25T15:21:51.958Z,3.69
2023-02-25T15:24:44.334Z,3.69
2023-02-25T15:27:46.964Z,3.71
2023-02-25T15:30:22.195Z,3.71
2023-02-25T15:33:07.017Z,3.72
2023-02-25T15:35:58.538Z,3.78
2023-02-25T15:38:45.511Z,3.77
2023-02-25T15:41:42.536Z,3.71
2023-02-25T15:44:37.188Z,3.61
2023-02-25T15:47:30.261Z,3.55
2023-02-25T15:50:03.527Z,3.49
2023-02-25T15:52:59.765Z,3.41
2023-02-25T15:55:41.322Z,3.39
2023-02-25T15:58:44.077Z,3.34
2023-02-25T16:01:43.673Z,3.31
2023-02-25T16:04:51.697Z,3.20
2023-02-25T16:07:30.586Z,3.20
2023-02-25T16:10:06.551Z,3.22
2023-02-25T16:12:43.401Z,3.22
2023-02-25T16:15:27.197Z,3.18
2023-02-25T16:18:06.924Z,3.15
2023-02-25T16:20:47.363Z,3.11
2023-02-25T16:23:20.530Z,3.06
2023-02-25T16:26:04.686Z,3.02
2023-02-25T16:28:50.776Z,3.03
2023-02-25T16:31:32.296Z,2.88
2023-02-25T16:34:13.657Z,2.88
2023-02-25T16:36:55.857Z,2.94
2023-02-25T16:39:30.632Z,2.89
2023-02-25T16:42:09.442Z,2.88
2023-02-25T16:44:44.901Z,2.88
2023-02-25T16:47:27.571Z,2.93
2023-02-25T16:50:01.520Z,2.89
2023-02-25T16:52:40.341Z,2.88
2023-02-25T16:55:18.604Z,2.88
2023-02-25T16:58:06.192Z,2.81
2023-02-25T17:00:38.095Z,2.81
2023-02-25T17:03:13.601Z,2.82
2023-02-25T17:05:45.924Z,2.79
2023-02-25T17:08:19.834Z,2.83
2023-02-25T17:10:56.503Z,2.84
2023-02-25T17:13:32.902Z,2.86
2023-02-25T17:16:06.326Z,2.84
2023-02-25T17:18:46.283Z,2.78
2023-02-25T17:21:24.052Z,2.76
2023-02-25T17:23:57.416Z,2.79
2023-02-25T17:26:30.011Z,2.76
2023-02-25T17:29:10.302Z,2.72
2023-02-25T17:31:48.781Z,2.65
2023-02-25T17:34:26.948Z,2.65
2023-02-25T17:37:04.360Z,2.62
2023-02-25T17:39:36.890Z,2.59
2023-02-25T17:42:32.120Z,2.53
2023-02-25T17:45:07.257Z,2.54
2023-02-25T17:47:38.962Z,2.49
2023-02-25T17:50:30.293Z,2.48
2023-02-25T17:53:05.300Z,2.50
2023-02-25T17:55:37.583Z,2.44
2023-02-25T17:58:22.357Z,2.45
2023-02-25T18:01:03.828Z,2.43
2023-02-25T18:03:46.055Z,2.43
2023-02-25T18:06:33.459Z,2.38
2023-02-25T18:09:06.270Z,2.40
2023-02-25T18:11:41.348Z,2.39
2023-02-25T18:14:29.612Z,2.32
2023-02-25T18:17:02.559Z,2.24
2023-02-25T18:19:41.179Z,2.22
2023-02-25T18:22:30.786Z,2.21
2023-02-25T18:25:05.628Z,2.17
2023-02-25T18:27:38.451Z,2.11
2023-02-25T18:30:21.772Z,2.14
2023-02-25T18:32:54.580Z,2.14
2023-02-25T18:35:27.490Z,2.08
2023-02-25T18:38:00.973Z,2.07
2023-02-25T18:40:36.090Z,2.08
2023-02-25T18:43:10.923Z,2.06
2023-02-25T18:45:43.017Z,2.10
2023-02-25T18:48:14.948Z,2.12
2023-02-25T18:50:46.783Z,2.10
2023-02-25T18:53:20.700Z,2.14
2023-02-25T18:55:53.611Z,2.16
2023-02-25T18:58:26.136Z,2.15
2023-02-25T19:00:58.240Z,2.15
2023-02-25T19:03:33.284Z,2.16
2023-02-25T19:06:05.518Z,2.14
2023-02-25T19:08:37.490Z,2.14
2023-02-25T19:11:12.254Z,2.15
2023-02-25T19:13:44.911Z,2.17
2023-02-25T19:16:17.122Z,2.16
2023-02-25T19:18:49.508Z,2.12
2023-02-25T19:21:22.932Z,2.13
2023-02-25T19:23:55.455Z,2.14
2023-02-25T19:26:27.419Z,2.13
2023-02-25T19:29:00.612Z,2.10
2023-02-25T19:31:32.458Z,2.08
2023-02-25T19:34:04.502Z,2.11
2023-02-25T19:36:36.309Z,2.10
2023-02-25T19:39:07.935Z,2.04
2023-02-25T19:41:40.493Z,2.09
2023-02-25T19:44:12.479Z,2.16
2023-02-25T19:46:44.762Z,2.08
2023-02-25T19:49:16.679Z,2.05
2023-02-25T19:51:48.675Z,2.04
2023-02-25T19:54:21.144Z,2.01
2023-02-25T19:56:53.013Z,2.02
2023-02-25T19:59:24.728Z,1.95
2023-02-25T20:01:56.506Z,1.91
2023-02-25T20:04:29.146Z,1.91
2023-02-25T20:07:00.693Z,1.89
2023-02-25T20:09:32.773Z,1.85
2023-02-25T20:12:04.853Z,1.74
2023-02-25T20:14:38.327Z,1.70
2023-02-25T20:17:10.685Z,1.65
2023-02-25T20:19:43.348Z,1.64
2023-02-25T20:22:13.608Z,1.65
2023-02-25T20:24:46.687Z,1.61
2023-02-25T20:27:19.140Z,1.64
2023-02-25T20:29:49.543Z,1.66
2023-02-25T20:32:21.599Z,1.66
2023-02-25T20:34:54.146Z,1.60
2023-02-25T20:37:31.203Z,1.52
2023-02-25T20:40:07.959Z,1.54
2023-02-25T20:42:40.228Z,1.61
2023-02-25T20:45:18.042Z,1.57
2023-02-25T20:47:50.575Z,1.54
2023-02-25T20:50:28.496Z,1.51
2023-02-25T20:53:01.314Z,1.49
2023-02-25T20:55:31.747Z,1.51
2023-02-25T20:58:03.442Z,1.54
2023-02-25T21:00:35.153Z,1.48
2023-02-25T21:03:07.106Z,1.51
2023-02-25T21:05:40.241Z,1.49
2023-02-25T21:08:10.528Z,1.51
2023-02-25T21:10:43.256Z,1.54
2023-02-25T21:13:15.897Z,1.55
2023-02-25T21:15:46.514Z,1.53
2023-02-25T21:18:18.429Z,1.54
2023-02-25T21:20:50.267Z,1.48
2023-02-25T21:23:24.523Z,1.46
2023-02-25T21:25:59.744Z,1.49
2023-02-25T21:28:30.613Z,1.44
2023-02-25T21:31:05.841Z,1.46
2023-02-25T21:33:39.076Z,1.48
2023-02-25T21:36:11.883Z,1.48
2023-02-25T21:38:43.599Z,1.45
2023-02-25T21:41:16.906Z,1.44
2023-02-25T21:43:48.679Z,1.45
2023-02-25T21:46:20.878Z,1.43
2023-02-25T21:48:53.564Z,1.42
2023-02-25T21:51:29.228Z,1.41
2023-02-25T21:54:02.672Z,1.38
2023-02-25T21:56:34.495Z,1.39
2023-02-25T21:59:07.270Z,1.34
2023-02-25T22:01:41.355Z,1.37
2023-02-25T22:04:13.589Z,1.40
2023-02-25T22:06:48.806Z,1.37
2023-02-25T22:09:20.867Z,1.34
2023-02-25T22:11:52.742Z,1.34
2023-02-25T22:14:26.260Z,1.34
2023-02-25T22:16:59.964Z,1.31
2023-02-25T22:19:33.598Z,1.26
2023-02-25T22:22:05.287Z,1.27
2023-02-25T22:24:37.157Z,1.27
2023-02-25T22:27:09.485Z,1.30
2023-02-25T22:29:41.273Z,1.24
2023-02-25T22:32:13.099Z,1.28
2023-02-25T22:34:45.825Z,1.28
2023-02-25T22:37:16.019Z,1.23
2023-02-25T22:39:47.742Z,1.19
2023-02-25T22:42:19.710Z,1.22
2023-02-25T22:44:51.509Z,1.25
2023-02-25T22:47:23.825Z,1.23
2023-02-25T22:49:55.901Z,1.22
2023-02-25T22:52:27.825Z,1.23
2023-02-25T22:54:59.820Z,1.18
2023-02-25T22:57:31.540Z,1.18
2023-02-25T23:00:16.630Z,1.20
2023-02-25T23:02:48.412Z,1.16
2023-02-25T23:05:20.401Z,1.13
2023-02-25T23:07:52.371Z,1.13
2023-02-25T23:10:24.216Z,1.12
2023-02-25T23:12:58.511Z,1.16
2023-02-25T23:15:30.589Z,1.16
2023-02-25T23:18:03.569Z,1.19
2023-02-25T23:20:37.121Z,1.18
2023-02-25T23:23:13.477Z,1.13
2023-02-25T23:25:51.165Z,1.13
2023-02-25T23:28:23.022Z,1.16
2023-02-25T23:30:54.829Z,1.15
2023-02-25T23:33:26.739Z,1.20
2023-02-25T23:35:58.674Z,1.15
2023-02-25T23:38:30.512Z,1.15
2023-02-25T23:41:02.824Z,1.17
2023-02-25T23:43:34.603Z,1.21
2023-02-25T23:46:07.532Z,1.27
2023-02-25T23:48:39.501Z,1.30
2023-02-25T23:51:11.982Z,1.29
2023-02-25T23:53:44.873Z,1.28
2023-02-25T23:56:16.851Z,1.24
2023-02-25T23:58:50.998Z,1.20
